RUNWAY INFORMATION
Runway Length Width Elevation Displaced
Threshold
Heading | Runway Length Width Elevation Displaced
Threshold
Heading
03 7000 ft 150 ft 1183 ft 0 ft 23 | 21 7000 ft 150 ft 1217 ft 0 ft 203

 AIRPORT FREQUENCIES
Type A/D Name CLARKSBURG Frequency 119.6 MHZ
Type ATIS Name ATIS Frequency 127.825 MHZ
Type CTAF Name CTAF Frequency 126.7 MHZ
Type GND Name GND Frequency 121.9 MHZ
Type OPS Name ARNG OPS Frequency 139.05 MHZ
Type RDO Name ELKINS RDO Frequency 112.6 MHZ
Type TWR Name CLARKSBURG Frequency 126.7 MHZ
Type UNIC Name UNICOM Frequency 123 MHZ

 AIRPORT NEAR NAVIGATION AIDS
Type VOR-DME Name Clarksburg Frequency 112600 KHZ

 METAR AND TAF INFORMATION
METAR FOR KCKB
ADDS - METARS form results

(0832 UTC 18 August 2022)
Data provider http://aviationweather.gov/metar/data/
 
METAR text: KCKB 180803Z AUTO 00000KT 1/4SM FG VV001 15/13 A3001 RMK AO2 T01500133
Conditions at: KCKB (CLARKSBURG , WV, US) observed 0803 UTC 18 August 2022
Temperature: 15.0°C (59°F)
Dewpoint: 13.3°C (56°F) [RH = 90%]
Pressure (altimeter): 30.01 inches Hg (1016.3 mb)
Winds: calm
Visibility: 0.25 miles (0.40 km)
Ceiling: indefinite ceiling with vertical visibility of 100 feet AGL
Clouds: obscured sky
Weather: FG  (fog)

METAR text: KCKB 180753Z AUTO 00000KT 1/2SM FG VV001 15/13 A3001 RMK AO2 SLP148 T01500133
Conditions at: KCKB (CLARKSBURG , WV, US) observed 0753 UTC 18 August 2022
Temperature: 15.0°C (59°F)
Dewpoint: 13.3°C (56°F) [RH = 90%]
Pressure (altimeter): 30.01 inches Hg (1016.3 mb)
[Sea-level pressure: 1014.8 mb]
Winds: calm
Visibility: 0.50 miles (0.80 km)
Ceiling: indefinite ceiling with vertical visibility of 100 feet AGL
Clouds: obscured sky
Weather: FG  (fog)

METAR text: KCKB 180745Z AUTO 00000KT 1/2SM FG VV002 15/13 A3001 RMK AO2 T01500133
Conditions at: KCKB (CLARKSBURG , WV, US) observed 0745 UTC 18 August 2022
Temperature: 15.0°C (59°F)
Dewpoint: 13.3°C (56°F) [RH = 90%]
Pressure (altimeter): 30.01 inches Hg (1016.3 mb)
Winds: calm
Visibility: 0.50 miles (0.80 km)
Ceiling: indefinite ceiling with vertical visibility of 200 feet AGL
Clouds: obscured sky
Weather: FG  (fog)

Forecast for: KCKB (CLARKSBURG , WV, US)
Text: KCKB 180539Z 1806/1906 00000KT 1SM BR VV002
Forecast period: 0600 to 0800 UTC 18 August 2022
Forecast type: FROM: standard forecast or significant change
Winds: calm
Visibility: 1.00 miles (1.61 km)
Ceiling: indefinite ceiling with vertical visibility of 200 feet AGL
Clouds: obscured sky
Weather: BR  (mist)
Text: TEMPO 1806/1808 1/2SM FG VV001
Forecast period: 0600 to 0800 UTC 18 August 2022
Forecast type: TEMPORARY: The following changes expected for less than half the time period
Visibility: 0.50 miles (0.80 km)
Ceiling: indefinite ceiling with vertical visibility of 100 feet AGL
Clouds: obscured sky
Weather: FG  (fog)
Text: FM180800 00000KT 1/2SM FG VV001
Forecast period: 0800 to 1100 UTC 18 August 2022
Forecast type: FROM: standard forecast or significant change
Winds: calm
Visibility: 0.50 miles (0.80 km)
Ceiling: indefinite ceiling with vertical visibility of 100 feet AGL
Clouds: obscured sky
Weather: FG  (fog)
Text: FM181100 00000KT 1SM BR FEW010
Forecast period: 1100 to 1300 UTC 18 August 2022
Forecast type: FROM: standard forecast or significant change
Winds: calm
Visibility: 1.00 miles (1.61 km)
Ceiling: at least 12,000 feet AGL
Clouds: few clouds at 1000 feet AGL
Weather: BR  (mist)
Text: FM181300 34003KT P6SM FEW020
Forecast period: 1300 to 1500 UTC 18 August 2022
Forecast type: FROM: standard forecast or significant change
Winds: from the NNW (340 degrees) at 3 MPH (3 knots; 1.5 m/s)
Visibility: 6 or more miles (10+ km)
Ceiling: at least 12,000 feet AGL
Clouds: few clouds at 2000 feet AGL
Weather: no significant weather forecast for this period
Text: FM181500 28004KT P6SM FEW110
Forecast period: 1500 UTC 18 August 2022 to 0600 UTC 19 August 2022
Forecast type: FROM: standard forecast or significant change
Winds: from the W (280 degrees) at 5 MPH (4 knots; 2.1 m/s)
Visibility: 6 or more miles (10+ km)
Ceiling: at least 12,000 feet AGL
Clouds: few clouds at 11000 feet AGL
Weather: no significant weather forecast for this period



© 2013 - 2022, FlightSimLog.org - Powered by Virtual Airlines Manager